createdAt,value
2022-08-12T00:00:58.386Z,16.90
2022-08-12T00:03:43.713Z,16.90
2022-08-12T00:06:29.542Z,16.90
2022-08-12T00:09:16.334Z,16.80
2022-08-12T00:12:02.795Z,16.80
2022-08-12T00:14:48.075Z,16.70
2022-08-12T00:17:33.378Z,16.70
2022-08-12T00:20:18.790Z,16.60
2022-08-12T00:23:04.166Z,16.60
2022-08-12T00:26:21.556Z,16.50
2022-08-12T00:29:06.215Z,16.50
2022-08-12T00:31:51.514Z,16.50
2022-08-12T00:34:37.077Z,16.40
2022-08-12T00:37:23.138Z,16.50
2022-08-12T00:40:10.956Z,16.50
2022-08-12T00:42:40.305Z,16.40
2022-08-12T00:45:08.081Z,16.40
2022-08-12T00:47:36.006Z,16.40
2022-08-12T00:50:04.222Z,16.40
2022-08-12T00:52:33.119Z,16.30
2022-08-12T00:55:02.478Z,16.30
2022-08-12T00:57:36.529Z,16.30
2022-08-12T01:00:10.480Z,16.20
2022-08-12T01:02:45.362Z,16.20
2022-08-12T01:05:32.971Z,16.10
2022-08-12T01:08:18.381Z,16.10
2022-08-12T01:11:05.633Z,16.00
2022-08-12T01:13:34.791Z,16.00
2022-08-12T01:16:04.502Z,15.90
2022-08-12T01:18:33.823Z,16.00
2022-08-12T01:21:09.743Z,15.90
2022-08-12T01:24:30.267Z,15.90
2022-08-12T01:26:58.711Z,15.90
2022-08-12T01:29:32.468Z,15.90
2022-08-12T01:32:05.267Z,15.80
2022-08-12T01:34:37.565Z,15.80
2022-08-12T01:37:08.061Z,15.70
2022-08-12T01:40:35.318Z,15.70
2022-08-12T01:42:34.699Z,15.70
2022-08-12T01:45:03.018Z,15.70
2022-08-12T01:47:50.496Z,15.60
2022-08-12T01:50:43.085Z,15.60
2022-08-12T01:53:12.930Z,15.60
2022-08-12T01:55:43.196Z,15.50
2022-08-12T01:58:27.635Z,15.50
2022-08-12T02:01:03.933Z,15.50
2022-08-12T02:04:01.567Z,15.40
2022-08-12T02:07:39.018Z,15.40
2022-08-12T02:10:50.643Z,15.30
2022-08-12T02:13:49.320Z,15.20
2022-08-12T02:16:45.878Z,15.10
2022-08-12T02:19:47.055Z,15.10
2022-08-12T02:22:22.458Z,15.10
2022-08-12T02:24:50.763Z,15.10
2022-08-12T02:27:20.066Z,15.00
2022-08-12T02:29:47.571Z,14.90
2022-08-12T02:32:15.076Z,14.90
2022-08-12T02:34:44.520Z,14.90
2022-08-12T02:37:15.292Z,14.80
2022-08-12T02:39:48.739Z,14.80
2022-08-12T02:42:18.887Z,14.80
2022-08-12T02:44:50.608Z,14.80
2022-08-12T02:47:58.070Z,14.70
2022-08-12T02:50:09.663Z,14.70
2022-08-12T02:52:37.503Z,14.70
2022-08-12T02:55:28.826Z,14.70
2022-08-12T02:58:04.300Z,14.60
2022-08-12T03:00:37.676Z,14.60
2022-08-12T03:03:12.952Z,14.50
2022-08-12T03:05:52.450Z,14.50
2022-08-12T03:08:31.727Z,14.50
2022-08-12T03:11:04.186Z,14.40
2022-08-12T03:13:33.494Z,14.40
2022-08-12T03:16:00.626Z,14.40
2022-08-12T03:18:32.157Z,14.40
2022-08-12T03:21:00.982Z,14.30
2022-08-12T03:23:31.015Z,14.30
2022-08-12T03:26:01.408Z,14.30
2022-08-12T03:28:49.679Z,14.30
2022-08-12T03:31:18.801Z,14.20
2022-08-12T03:34:01.911Z,14.20
2022-08-12T03:36:35.818Z,14.20
2022-08-12T03:39:35.364Z,14.10
2022-08-12T03:42:03.587Z,14.10
2022-08-12T03:45:24.610Z,14.10
2022-08-12T03:48:18.791Z,14.00
2022-08-12T03:51:05.731Z,14.00
2022-08-12T03:53:51.542Z,14.00
2022-08-12T03:56:37.371Z,14.00
2022-08-12T03:59:25.611Z,13.90
2022-08-12T04:01:57.260Z,13.90
2022-08-12T04:04:36.445Z,13.90
2022-08-12T04:07:07.915Z,13.90
2022-08-12T04:09:36.597Z,13.90
2022-08-12T04:12:26.198Z,13.80
2022-08-12T04:14:56.925Z,13.80
2022-08-12T04:17:24.857Z,13.80
2022-08-12T04:19:52.950Z,13.80
2022-08-12T04:22:19.764Z,13.70
2022-08-12T04:24:50.680Z,13.70
2022-08-12T04:27:17.468Z,13.70
2022-08-12T04:30:32.913Z,13.70
2022-08-12T04:32:32.160Z,13.70
2022-08-12T04:34:58.940Z,13.80
2022-08-12T04:37:25.634Z,13.80
2022-08-12T04:39:54.154Z,13.80
2022-08-12T04:42:21.798Z,13.80
2022-08-12T04:44:48.711Z,13.80
2022-08-12T04:47:16.751Z,13.90
2022-08-12T04:49:46.058Z,13.90
2022-08-12T04:52:13.038Z,13.90
2022-08-12T04:54:39.868Z,14.00
2022-08-12T04:57:09.550Z,14.00
2022-08-12T04:59:46.851Z,14.00
2022-08-12T05:02:22.640Z,14.10
2022-08-12T05:04:51.721Z,14.10
2022-08-12T05:07:19.361Z,14.30
2022-08-12T05:10:00.550Z,14.30
2022-08-12T05:12:42.936Z,14.40
2022-08-12T05:15:19.464Z,14.50
2022-08-12T05:17:55.375Z,14.60
2022-08-12T05:20:22.527Z,14.80
2022-08-12T05:22:53.229Z,15.00
2022-08-12T05:25:24.333Z,15.10
2022-08-12T05:27:58.516Z,15.40
2022-08-12T05:30:30.860Z,15.50
2022-08-12T05:33:00.463Z,15.70
2022-08-12T05:35:27.825Z,15.90
2022-08-12T05:38:14.574Z,16.00
2022-08-12T05:40:42.539Z,16.20
2022-08-12T05:43:09.257Z,16.30
2022-08-12T05:45:38.250Z,16.50
2022-08-12T05:48:07.368Z,16.70
2022-08-12T05:50:35.555Z,16.80
2022-08-12T05:53:02.835Z,17.00
2022-08-12T05:55:31.473Z,17.10
2022-08-12T05:57:58.826Z,17.30
2022-08-12T06:00:26.533Z,17.40
2022-08-12T06:03:01.050Z,17.50
2022-08-12T06:05:29.187Z,17.60
2022-08-12T06:08:01.184Z,17.80
2022-08-12T06:10:32.378Z,17.90
2022-08-12T06:13:05.217Z,17.90
2022-08-12T06:15:35.545Z,18.00
2022-08-12T06:18:15.941Z,18.20
2022-08-12T06:20:43.601Z,18.30
2022-08-12T06:23:10.865Z,18.40
2022-08-12T06:25:37.754Z,18.60
2022-08-12T06:28:17.374Z,18.70
2022-08-12T06:30:53.125Z,18.80
2022-08-12T06:33:56.029Z,19.00
2022-08-12T06:36:21.111Z,19.20
2022-08-12T06:38:49.423Z,19.40
2022-08-12T06:41:35.576Z,19.60
2022-08-12T06:44:04.865Z,19.80
2022-08-12T06:46:36.774Z,20.00
2022-08-12T06:49:03.696Z,20.00
2022-08-12T06:51:32.117Z,20.20
2022-08-12T06:54:00.783Z,20.40
2022-08-12T06:56:59.542Z,20.70
2022-08-12T06:59:15.601Z,20.90
2022-08-12T07:01:51.230Z,21.20
2022-08-12T07:07:10.154Z,21.70
2022-08-12T07:10:06.817Z,21.90
2022-08-12T07:12:28.363Z,22.10
2022-08-12T07:14:58.833Z,22.40
2022-08-12T07:17:35.579Z,22.50
2022-08-12T07:20:09.881Z,22.80
2022-08-12T07:22:37.516Z,23.00
2022-08-12T07:25:22.859Z,23.30
2022-08-12T07:27:53.916Z,23.50
2022-08-12T07:30:20.821Z,23.80
2022-08-12T07:32:49.644Z,24.10
2022-08-12T07:35:17.495Z,24.40
2022-08-12T07:37:44.239Z,24.70
2022-08-12T07:40:12.211Z,25.00
2022-08-12T07:42:43.745Z,25.20
2022-08-12T07:45:12.221Z,25.40
2022-08-12T07:47:45.730Z,25.70
2022-08-12T07:50:16.167Z,26.00
2022-08-12T07:52:48.075Z,26.20
2022-08-12T07:55:16.417Z,26.40
2022-08-12T07:57:52.395Z,26.60
2022-08-12T08:00:19.179Z,26.70
2022-08-12T08:02:46.258Z,26.80
2022-08-12T08:05:15.497Z,27.10
2022-08-12T08:07:42.753Z,27.50
2022-08-12T08:10:11.408Z,27.50
2022-08-12T08:12:53.409Z,27.90
2022-08-12T08:15:44.487Z,28.30
2022-08-12T08:18:26.282Z,28.40
2022-08-12T08:20:54.811Z,28.50
2022-08-12T08:23:21.766Z,28.60
2022-08-12T08:25:49.975Z,28.70
2022-08-12T08:28:17.158Z,28.80
2022-08-12T08:30:46.142Z,28.90
2022-08-12T08:33:21.890Z,28.80
2022-08-12T08:35:54.177Z,28.70
2022-08-12T08:38:25.524Z,28.80
2022-08-12T08:42:19.265Z,28.80
2022-08-12T08:44:04.953Z,28.80
2022-08-12T08:46:34.292Z,28.80
2022-08-12T08:49:01.382Z,28.80
2022-08-12T08:51:28.164Z,28.70
2022-08-12T08:53:54.824Z,28.70
2022-08-12T08:56:22.494Z,28.60
2022-08-12T08:58:49.569Z,28.70
2022-08-12T09:01:21.507Z,28.90
2022-08-12T09:05:12.089Z,29.00
2022-08-12T09:06:37.831Z,28.80
2022-08-12T09:09:13.084Z,28.90
2022-08-12T09:14:51.170Z,28.70
2022-08-12T09:17:21.279Z,28.60
2022-08-12T09:19:53.617Z,28.30
2022-08-12T09:22:29.431Z,28.40
2022-08-12T09:24:59.856Z,28.40
2022-08-12T09:30:16.492Z,28.50
2022-08-12T09:33:05.330Z,28.60
2022-08-12T09:35:42.727Z,28.70
2022-08-12T09:38:27.815Z,28.90
2022-08-12T09:42:07.614Z,29.10
2022-08-12T09:44:38.246Z,29.10
2022-08-12T09:46:54.981Z,28.90
2022-08-12T09:49:24.923Z,28.80
2022-08-12T09:51:55.147Z,28.70
2022-08-12T09:54:34.513Z,28.60
2022-08-12T09:58:45.162Z,28.60
2022-08-12T10:00:15.279Z,28.60
2022-08-12T10:03:01.329Z,29.00
2022-08-12T10:06:20.387Z,29.30
2022-08-12T10:08:21.921Z,29.50
2022-08-12T10:11:08.623Z,29.50
2022-08-12T10:13:46.321Z,29.50
2022-08-12T10:16:21.962Z,29.50
2022-08-12T10:18:51.783Z,29.60
2022-08-12T10:21:48.560Z,29.40
2022-08-12T10:24:26.129Z,29.30
2022-08-12T10:27:14.438Z,29.40
2022-08-12T10:30:37.083Z,29.60
2022-08-12T10:32:44.747Z,29.70
2022-08-12T10:35:15.577Z,29.70
2022-08-12T10:38:34.992Z,29.70
2022-08-12T10:40:34.265Z,29.50
2022-08-12T10:43:23.141Z,29.70
2022-08-12T10:45:53.219Z,29.80
2022-08-12T10:48:33.467Z,29.70
2022-08-12T10:52:02.815Z,29.80
2022-08-12T10:54:00.993Z,29.90
2022-08-12T10:56:34.156Z,29.80
2022-08-12T10:59:03.118Z,29.90
2022-08-12T11:04:19.133Z,29.70
2022-08-12T11:04:35.314Z,29.70
2022-08-12T11:08:33.668Z,29.70
2022-08-12T11:10:01.342Z,29.90
2022-08-12T11:12:55.409Z,29.70
2022-08-12T11:15:21.127Z,29.50
2022-08-12T11:17:53.889Z,29.30
2022-08-12T11:20:24.526Z,29.30
2022-08-12T11:22:59.513Z,29.50
2022-08-12T11:25:55.493Z,29.40
2022-08-12T11:28:15.030Z,29.50
2022-08-12T11:30:43.609Z,29.60
2022-08-12T11:33:12.267Z,29.60
2022-08-12T11:35:53.126Z,29.70
2022-08-12T11:38:24.036Z,29.70
2022-08-12T11:40:50.822Z,29.60
2022-08-12T11:43:20.035Z,29.50
2022-08-12T11:45:52.871Z,29.30
2022-08-12T11:48:27.150Z,29.30
2022-08-12T11:50:54.497Z,29.30
2022-08-12T11:53:57.724Z,29.40
2022-08-12T11:56:08.132Z,29.50
2022-08-12T12:01:57.946Z,29.40
2022-08-12T12:02:02.218Z,29.50
2022-08-12T12:04:11.638Z,29.50
2022-08-12T12:06:38.399Z,29.60
2022-08-12T12:09:08.150Z,29.60
2022-08-12T12:11:49.116Z,29.60
2022-08-12T12:14:16.334Z,29.70
2022-08-12T12:16:50.230Z,29.80
2022-08-12T12:19:17.697Z,29.80
2022-08-12T12:21:48.727Z,29.80
2022-08-12T12:24:21.629Z,29.90
2022-08-12T12:26:59.589Z,29.90
2022-08-12T12:30:19.428Z,30.10
2022-08-12T12:32:15.997Z,29.90
2022-08-12T12:35:14.254Z,29.90
2022-08-12T12:38:05.479Z,30.00
2022-08-12T12:40:16.065Z,29.80
2022-08-12T12:42:56.711Z,29.90
2022-08-12T12:45:32.420Z,30.00
2022-08-12T12:48:05.581Z,29.90
2022-08-12T12:50:35.347Z,29.70
2022-08-12T12:53:03.839Z,29.70
2022-08-12T12:55:35.997Z,29.70
2022-08-12T12:58:04.715Z,29.80
2022-08-12T13:00:35.372Z,30.00
2022-08-12T13:03:02.260Z,29.90
2022-08-12T13:05:42.156Z,30.00
2022-08-12T13:08:28.113Z,30.10
2022-08-12T13:11:04.850Z,30.10
2022-08-12T13:14:07.967Z,30.00
2022-08-12T13:16:26.551Z,30.10
2022-08-12T13:18:53.885Z,30.20
2022-08-12T13:21:32.760Z,30.10
2022-08-12T13:24:02.558Z,30.20
2022-08-12T13:26:38.667Z,30.20
2022-08-12T13:29:05.343Z,30.10
2022-08-12T13:31:35.554Z,30.10
2022-08-12T13:34:32.169Z,30.20
2022-08-12T13:37:00.970Z,30.30
2022-08-12T13:39:30.049Z,30.30
2022-08-12T13:41:56.767Z,30.30
2022-08-12T13:44:26.202Z,30.30
2022-08-12T13:46:58.485Z,30.30
2022-08-12T13:49:55.540Z,30.30
2022-08-12T13:52:14.262Z,30.40
2022-08-12T13:54:40.967Z,30.40
2022-08-12T13:57:11.170Z,30.60
2022-08-12T13:59:48.750Z,30.60
2022-08-12T14:02:22.713Z,30.60
2022-08-12T14:04:56.227Z,30.80
2022-08-12T14:07:26.196Z,30.60
2022-08-12T14:10:16.249Z,30.30
2022-08-12T14:12:53.894Z,30.10
2022-08-12T14:15:21.050Z,30.10
2022-08-12T14:18:21.463Z,29.90
2022-08-12T14:20:50.305Z,29.90
2022-08-12T14:24:05.159Z,29.90
2022-08-12T14:26:16.021Z,29.90
2022-08-12T14:28:57.811Z,29.70
2022-08-12T14:31:31.760Z,29.60
2022-08-12T14:33:59.735Z,29.60
2022-08-12T14:36:26.552Z,29.70
2022-08-12T14:38:55.026Z,29.70
2022-08-12T14:41:25.279Z,29.90
2022-08-12T14:44:56.801Z,29.90
2022-08-12T14:46:55.640Z,30.10
2022-08-12T14:50:00.880Z,30.20
2022-08-12T14:53:13.504Z,30.10
2022-08-12T14:57:56.708Z,30.10
2022-08-12T15:00:52.394Z,30.20
2022-08-12T15:03:25.754Z,30.20
2022-08-12T15:06:43.901Z,30.20
2022-08-12T15:09:12.012Z,30.30
2022-08-12T15:11:48.778Z,30.00
2022-08-12T15:14:26.563Z,29.90
2022-08-12T15:16:54.533Z,29.70
2022-08-12T15:20:10.956Z,29.80
2022-08-12T15:22:35.382Z,29.70
2022-08-12T15:24:54.785Z,29.70
2022-08-12T15:27:22.189Z,29.80
2022-08-12T15:29:58.094Z,29.80
2022-08-12T15:32:31.990Z,29.90
2022-08-12T15:35:00.684Z,30.00
2022-08-12T15:38:08.306Z,30.00
2022-08-12T15:40:14.631Z,30.10
2022-08-12T15:42:42.542Z,30.10
2022-08-12T15:45:21.211Z,30.00
2022-08-12T15:48:04.547Z,30.00
2022-08-12T15:50:45.492Z,30.00
2022-08-12T15:53:15.349Z,29.90
2022-08-12T15:55:46.227Z,29.90
2022-08-12T15:58:16.955Z,29.90
2022-08-12T16:00:44.018Z,29.90
2022-08-12T16:03:13.566Z,29.80
2022-08-12T16:06:16.836Z,29.80
2022-08-12T16:08:36.302Z,29.80
2022-08-12T16:11:14.406Z,29.80
2022-08-12T16:13:44.286Z,29.80
2022-08-12T16:16:22.780Z,29.70
2022-08-12T16:18:57.869Z,29.70
2022-08-12T16:21:52.197Z,29.70
2022-08-12T16:24:14.392Z,29.70
2022-08-12T16:26:41.308Z,29.60
2022-08-12T16:29:15.648Z,29.40
2022-08-12T16:31:43.463Z,29.30
2022-08-12T16:34:40.082Z,29.30
2022-08-12T16:37:08.560Z,29.30
2022-08-12T16:40:00.935Z,29.10
2022-08-12T16:42:28.377Z,29.00
2022-08-12T16:44:57.008Z,29.00
2022-08-12T16:47:23.808Z,28.90
2022-08-12T16:49:55.595Z,28.70
2022-08-12T16:52:22.657Z,28.70
2022-08-12T16:54:50.068Z,28.60
2022-08-12T16:57:16.871Z,28.50
2022-08-12T16:59:54.102Z,28.40
2022-08-12T17:02:31.516Z,28.30
2022-08-12T17:05:03.657Z,28.30
2022-08-12T17:07:36.059Z,28.20
2022-08-12T17:10:06.721Z,28.20
2022-08-12T17:12:37.471Z,28.20
2022-08-12T17:15:21.479Z,28.20
2022-08-12T17:18:39.333Z,28.20
2022-08-12T17:20:46.697Z,28.10
2022-08-12T17:23:15.919Z,28.00
2022-08-12T17:25:48.322Z,28.00
2022-08-12T17:28:16.695Z,27.90
2022-08-12T17:30:44.626Z,27.90
2022-08-12T17:33:24.575Z,27.80
2022-08-12T17:35:51.944Z,27.70
2022-08-12T17:38:20.967Z,27.60
2022-08-12T17:40:48.365Z,27.50
2022-08-12T17:43:57.020Z,27.40
2022-08-12T17:46:12.790Z,27.40
2022-08-12T17:48:54.998Z,27.30
2022-08-12T17:51:25.881Z,27.10
2022-08-12T17:54:11.742Z,27.10
2022-08-12T17:56:40.580Z,27.00
2022-08-12T17:59:12.357Z,26.90
2022-08-12T18:01:43.313Z,26.90
2022-08-12T18:04:22.848Z,26.80
2022-08-12T18:06:57.200Z,26.70
2022-08-12T18:09:31.962Z,26.70
2022-08-12T18:12:24.698Z,26.60
2022-08-12T18:14:58.738Z,26.50
2022-08-12T18:17:27.000Z,26.40
2022-08-12T18:20:05.809Z,26.30
2022-08-12T18:22:35.257Z,26.20
2022-08-12T18:25:06.433Z,26.10
2022-08-12T18:27:46.638Z,26.10
2022-08-12T18:30:20.424Z,26.00
2022-08-12T18:33:03.405Z,25.90
2022-08-12T18:35:47.044Z,25.80
2022-08-12T18:38:21.748Z,25.80
2022-08-12T18:41:09.798Z,25.70
2022-08-12T18:43:58.527Z,25.60
2022-08-12T18:46:32.858Z,25.60
2022-08-12T18:49:17.707Z,25.50
2022-08-12T18:51:55.255Z,25.40
2022-08-12T18:54:34.017Z,25.30
2022-08-12T18:57:03.789Z,25.20
2022-08-12T19:00:01.890Z,25.10
2022-08-12T19:02:22.528Z,25.00
2022-08-12T19:04:50.509Z,25.00
2022-08-12T19:07:23.169Z,24.80
2022-08-12T19:09:59.015Z,24.80
2022-08-12T19:12:55.807Z,24.70
2022-08-12T19:15:30.066Z,24.60
2022-08-12T19:18:02.491Z,24.50
2022-08-12T19:20:30.688Z,24.30
2022-08-12T19:22:59.575Z,24.20
2022-08-12T19:25:59.749Z,24.10
2022-08-12T19:28:18.697Z,24.00
2022-08-12T19:31:15.205Z,23.90
2022-08-12T19:34:06.304Z,23.80
2022-08-12T19:36:34.582Z,23.70
2022-08-12T19:39:02.825Z,23.60
2022-08-12T19:42:00.848Z,23.60
2022-08-12T19:44:29.211Z,23.40
2022-08-12T19:46:56.610Z,23.30
2022-08-12T19:49:23.378Z,23.30
2022-08-12T19:51:50.487Z,23.10
2022-08-12T19:54:22.610Z,23.00
2022-08-12T19:56:52.124Z,22.90
2022-08-12T19:59:43.272Z,22.70
2022-08-12T20:02:33.220Z,22.60
2022-08-12T20:06:07.102Z,22.50
2022-08-12T20:08:10.074Z,22.40
2022-08-12T20:10:47.366Z,22.20
2022-08-12T20:13:26.920Z,22.10
2022-08-12T20:16:06.179Z,22.00
2022-08-12T20:18:53.268Z,21.90
2022-08-12T20:21:25.299Z,21.70
2022-08-12T20:24:00.925Z,21.70
2022-08-12T20:26:28.407Z,21.60
2022-08-12T20:28:55.418Z,21.40
2022-08-12T20:31:22.145Z,21.40
2022-08-12T20:33:50.675Z,21.30
2022-08-12T20:36:42.281Z,21.20
2022-08-12T20:39:35.832Z,21.10
2022-08-12T20:42:01.735Z,21.00
2022-08-12T20:44:30.433Z,20.90
2022-08-12T20:47:11.846Z,20.80
2022-08-12T20:49:54.825Z,20.80
2022-08-12T20:52:24.425Z,20.60
2022-08-12T20:54:51.494Z,20.50
2022-08-12T20:57:19.931Z,20.50
2022-08-12T20:59:52.490Z,20.40
2022-08-12T21:02:24.753Z,20.30
2022-08-12T21:05:19.697Z,20.20
2022-08-12T21:07:52.035Z,20.20
2022-08-12T21:10:20.966Z,20.10
2022-08-12T21:12:48.995Z,20.00
2022-08-12T21:15:23.119Z,19.90
2022-08-12T21:18:11.821Z,19.90
2022-08-12T21:20:52.150Z,19.80
2022-08-12T21:23:21.518Z,19.70
2022-08-12T21:25:51.198Z,19.70
2022-08-12T21:28:20.439Z,19.70
2022-08-12T21:30:54.920Z,19.60
2022-08-12T21:33:58.358Z,19.60
2022-08-12T21:36:32.264Z,19.40
2022-08-12T21:39:18.481Z,19.40
2022-08-12T21:41:52.294Z,19.30
2022-08-12T21:45:48.351Z,19.30
2022-08-12T21:47:21.444Z,19.20
2022-08-12T21:50:02.543Z,19.10
2022-08-12T21:52:34.505Z,19.10
2022-08-12T21:55:02.836Z,19.00
2022-08-12T21:57:36.370Z,19.00
2022-08-12T22:00:17.359Z,18.90
2022-08-12T22:03:02.829Z,18.80
2022-08-12T22:05:49.096Z,18.70
2022-08-12T22:08:16.235Z,18.70
2022-08-12T22:10:51.112Z,18.60
2022-08-12T22:14:02.218Z,18.60
2022-08-12T22:16:06.668Z,18.50
2022-08-12T22:18:33.418Z,18.40
2022-08-12T22:21:00.100Z,18.40
2022-08-12T22:23:51.221Z,18.30
2022-08-12T22:26:16.060Z,18.20
2022-08-12T22:29:17.196Z,18.20
2022-08-12T22:31:48.115Z,18.10
2022-08-12T22:34:18.129Z,18.10
2022-08-12T22:36:46.371Z,18.00
2022-08-12T22:39:17.578Z,18.00
2022-08-12T22:42:03.327Z,18.00
2022-08-12T22:44:54.159Z,17.90
2022-08-12T22:47:55.256Z,17.90
2022-08-12T22:50:28.749Z,17.90
2022-08-12T22:53:14.584Z,17.80
2022-08-12T22:56:00.744Z,17.70
2022-08-12T22:58:33.923Z,17.70
2022-08-12T23:01:02.714Z,17.60
2022-08-12T23:03:49.580Z,17.50
2022-08-12T23:06:25.507Z,17.40
2022-08-12T23:08:54.826Z,17.40
2022-08-12T23:11:23.376Z,17.40
2022-08-12T23:14:01.710Z,17.40
2022-08-12T23:16:33.908Z,17.40
2022-08-12T23:19:23.249Z,17.30
2022-08-12T23:22:06.421Z,17.30
2022-08-12T23:24:53.687Z,17.30
2022-08-12T23:27:50.336Z,17.20
2022-08-12T23:30:25.225Z,17.20
2022-08-12T23:33:00.670Z,17.10
2022-08-12T23:35:46.065Z,17.10
2022-08-12T23:38:31.068Z,17.00
2022-08-12T23:41:01.317Z,17.00
2022-08-12T23:43:39.975Z,16.90
2022-08-12T23:46:12.305Z,16.90
2022-08-12T23:48:48.154Z,16.90
2022-08-12T23:51:22.534Z,16.90
2022-08-12T23:53:56.164Z,16.80
2022-08-12T23:56:25.862Z,16.80
2022-08-12T23:58:55.313Z,16.80
